Burneyville, OK (73430)

4:41 AM CDT on April 18, 2015 (GMT -0500)
Bulcher | | Change Station
CLOSE
Current Station
Personal Weather Station
Location: Muenster, TX
Elevation: 850 ft
Nearby Weather Stations

Elev 850 ft 33.80 °N, 97.42 °W | Updated 7 seconds ago

Rain
Rain
60.7 °F
Feels Like 60.7 °F
N
5.6
Wind Variable Wind from SW
Gusts 5.6 mph

Today
High -- | Low -- °F
--% Chance of Precip.
Yesterday
High -- | Low -- °F
Precip. -- in
6:55 AM 8:02 PM
Waning Crescent, 0% visible
Pressure 29.93 in
Visibility 10.0 miles
Clouds Overcast 9500 ft
Dew Point 61 °F
Humidity 99%
Rainfall 0.09 in
Snow Depth Not available.
UV 0 out of 12
Pollen 8.20 out of 12
Air Quality Not available.
Flu Activity Regional
METAR K1F0 180915Z AUTO 00000KT 10SM -DZ OVC095 15/15 A2993 RMK AO2 LTG DSNT N AND NE

More Conditions Fewer Conditions

Pressure 29.93 in
Visibility 10.0 miles
Clouds Overcast 9500 ft
Dew Point 61 °F
Humidity 99%
Rainfall 0.09 in
Snow Depth Not available.
UV 0 out of 12
Pollen 8.20 out of 12
Air Quality Not available.
Flu Activity Regional
METAR K1F0 180915Z AUTO 00000KT 10SM -DZ OVC095 15/15 A2993 RMK AO2 LTG DSNT N AND NE

More Conditions Fewer Conditions

10-Day Weather Forecast

Almanac

Astronomy

Apr. 18, 2015 Rise Set
Actual Time
Civil Twilight
Nautical Twilight
Astronomical Twilight
Moon
Length of Visible Light
Length of Day
Tomorrow will be .
, % of the Moon is Illuminated

Today's Extremes

State Highs State Lows

Community

WunderPhotos

Upload Photos

1,814,350 photos uploaded!

WunderBlogs® & News

Nearby

Air Quality

  Air Quality AQ Index Pollutant
Not available.

Snow Depth

Station Depth Elevation

Earthquake Activity

City Distance Mag. Time & Date
Minimum magnitude displayed is 2.5.

Coastal Water Temperatures

Place Temperature

Stations

Nearby Weather Stations

Station Location Temp. Windchill Dew Point Humidity Wind Precip. Elev Updated Type